createdAt,value
2018-11-03T00:02:23.133Z,9.14
2018-11-03T00:04:51.933Z,9.18
2018-11-03T00:07:20.828Z,9.15
2018-11-03T00:09:49.584Z,9.16
2018-11-03T00:12:18.461Z,9.13
2018-11-03T00:14:47.410Z,9.10
2018-11-03T00:17:16.093Z,9.12
2018-11-03T00:19:44.946Z,9.03
2018-11-03T00:22:13.779Z,9.06
2018-11-03T00:24:42.721Z,9.03
2018-11-03T00:27:11.590Z,8.99
2018-11-03T00:29:40.378Z,8.91
2018-11-03T00:32:09.101Z,8.90
2018-11-03T00:34:38.070Z,8.93
2018-11-03T00:37:06.792Z,8.85
2018-11-03T00:39:35.518Z,8.86
2018-11-03T00:42:04.531Z,8.83
2018-11-03T00:44:33.287Z,8.76
2018-11-03T00:47:01.996Z,8.72
2018-11-03T00:49:30.890Z,8.63
2018-11-03T00:51:59.591Z,8.57
2018-11-03T00:54:28.329Z,8.49
2018-11-03T00:56:57.408Z,8.44
2018-11-03T00:59:26.155Z,8.35
2018-11-03T01:01:54.914Z,8.22
2018-11-03T01:04:23.743Z,8.07
2018-11-03T01:06:52.489Z,8.03
2018-11-03T01:09:21.212Z,7.95
2018-11-03T01:11:49.986Z,7.95
2018-11-03T01:14:18.682Z,7.88
2018-11-03T01:16:47.487Z,7.87
2018-11-03T01:19:16.355Z,7.83
2018-11-03T01:21:45.097Z,7.79
2018-11-03T01:24:13.880Z,7.77
2018-11-03T01:26:42.773Z,7.71
2018-11-03T01:29:11.841Z,7.62
2018-11-03T01:31:40.587Z,7.54
2018-11-03T01:34:09.564Z,7.48
2018-11-03T01:36:38.392Z,7.40
2018-11-03T01:39:09.325Z,7.40
2018-11-03T01:41:38.359Z,7.36
2018-11-03T01:44:07.150Z,7.35
2018-11-03T01:46:36.933Z,7.37
2018-11-03T01:49:05.995Z,7.35
2018-11-03T01:51:34.742Z,7.36
2018-11-03T01:54:03.472Z,7.31
2018-11-03T01:56:32.286Z,7.27
2018-11-03T01:59:00.973Z,7.25
2018-11-03T02:01:29.668Z,7.27
2018-11-03T02:03:58.468Z,7.20
2018-11-03T02:06:27.276Z,7.11
2018-11-03T02:08:55.940Z,7.03
2018-11-03T02:11:24.674Z,7.03
2018-11-03T02:13:53.386Z,7.00
2018-11-03T02:16:22.116Z,6.99
2018-11-03T02:18:51.008Z,6.98
2018-11-03T02:21:19.726Z,6.98
2018-11-03T02:23:48.522Z,7.01
2018-11-03T02:26:17.349Z,7.00
2018-11-03T02:28:45.998Z,7.06
2018-11-03T02:31:14.679Z,7.01
2018-11-03T02:33:43.527Z,7.07
2018-11-03T02:36:12.209Z,7.06
2018-11-03T02:38:40.962Z,7.03
2018-11-03T02:41:09.886Z,7.02
2018-11-03T02:43:38.543Z,7.00
2018-11-03T02:46:07.286Z,7.03
2018-11-03T02:48:36.345Z,6.96
2018-11-03T02:51:05.235Z,6.91
2018-11-03T02:53:34.039Z,6.94
2018-11-03T02:56:03.219Z,6.93
2018-11-03T02:58:31.901Z,6.89
2018-11-03T03:01:00.555Z,6.88
2018-11-03T03:03:29.265Z,6.91
2018-11-03T03:05:57.958Z,6.97
2018-11-03T03:08:26.702Z,6.98
2018-11-03T03:10:55.498Z,6.89
2018-11-03T03:13:24.171Z,6.85
2018-11-03T03:15:52.871Z,6.89
2018-11-03T03:18:21.826Z,6.82
2018-11-03T03:20:51.054Z,6.74
2018-11-03T03:23:19.761Z,6.75
2018-11-03T03:25:48.547Z,6.79
2018-11-03T03:28:17.208Z,6.75
2018-11-03T03:30:45.920Z,6.83
2018-11-03T03:33:14.905Z,6.87
2018-11-03T03:35:43.638Z,6.86
2018-11-03T03:38:12.381Z,6.84
2018-11-03T03:40:41.159Z,6.89
2018-11-03T03:43:09.847Z,6.84
2018-11-03T03:45:38.564Z,6.78
2018-11-03T03:48:07.443Z,6.76
2018-11-03T03:50:37.176Z,6.82
2018-11-03T03:53:05.870Z,6.78
2018-11-03T03:55:34.678Z,6.73
2018-11-03T03:58:03.425Z,6.77
2018-11-03T04:00:32.107Z,6.80
2018-11-03T04:03:00.834Z,6.79
2018-11-03T04:05:29.541Z,6.75
2018-11-03T04:07:58.226Z,6.62
2018-11-03T04:10:27.013Z,6.54
2018-11-03T04:12:55.743Z,6.50
2018-11-03T04:15:24.467Z,6.58
2018-11-03T04:17:53.259Z,6.51
2018-11-03T04:20:21.952Z,6.43
2018-11-03T04:22:50.769Z,6.44
2018-11-03T04:25:19.771Z,6.46
2018-11-03T04:27:48.534Z,6.49
2018-11-03T04:30:17.218Z,6.47
2018-11-03T04:32:46.221Z,6.45
2018-11-03T04:35:14.972Z,6.52
2018-11-03T04:37:43.658Z,6.47
2018-11-03T04:40:13.065Z,6.39
2018-11-03T04:42:42.125Z,6.36
2018-11-03T04:45:11.726Z,6.34
2018-11-03T04:47:40.577Z,6.33
2018-11-03T04:50:10.240Z,6.29
2018-11-03T04:52:39.033Z,6.28
2018-11-03T04:55:08.958Z,6.25
2018-11-03T04:57:37.602Z,6.27
2018-11-03T05:00:08.029Z,6.28
2018-11-03T05:02:37.387Z,6.29
2018-11-03T05:05:06.231Z,6.23
2018-11-03T05:07:34.963Z,6.21
2018-11-03T05:10:04.014Z,6.24
2018-11-03T05:12:32.676Z,6.24
2018-11-03T05:15:01.364Z,6.23
2018-11-03T05:17:30.138Z,6.22
2018-11-03T05:19:58.817Z,6.14
2018-11-03T05:22:27.496Z,6.10
2018-11-03T05:24:56.464Z,6.12
2018-11-03T05:27:25.123Z,6.07
2018-11-03T05:29:53.785Z,6.02
2018-11-03T05:32:22.574Z,6.03
2018-11-03T05:34:51.260Z,5.94
2018-11-03T05:37:19.918Z,5.92
2018-11-03T05:39:48.656Z,5.94
2018-11-03T05:42:17.326Z,5.93
2018-11-03T05:44:45.997Z,5.89
2018-11-03T05:47:14.839Z,5.97
2018-11-03T05:49:43.502Z,5.99
2018-11-03T05:52:12.206Z,6.02
2018-11-03T05:54:40.998Z,5.97
2018-11-03T05:57:09.727Z,5.95
2018-11-03T05:59:38.584Z,5.98
2018-11-03T06:02:07.477Z,6.01
2018-11-03T06:04:36.165Z,6.04
2018-11-03T06:07:05.125Z,6.08
2018-11-03T06:09:34.020Z,6.07
2018-11-03T06:12:02.746Z,5.98
2018-11-03T06:14:31.429Z,5.99
2018-11-03T06:17:00.438Z,6.00
2018-11-03T06:19:29.164Z,5.99
2018-11-03T06:21:57.926Z,5.93
2018-11-03T06:24:26.794Z,5.86
2018-11-03T06:26:55.791Z,5.76
2018-11-03T06:29:24.533Z,5.75
2018-11-03T06:31:53.456Z,5.64
2018-11-03T06:34:22.144Z,5.62
2018-11-03T06:36:50.813Z,5.59
2018-11-03T06:39:19.877Z,5.60
2018-11-03T06:41:48.567Z,5.59
2018-11-03T06:44:17.257Z,5.57
2018-11-03T06:46:46.149Z,5.61
2018-11-03T06:49:21.993Z,5.66
2018-11-03T06:51:52.051Z,5.77
2018-11-03T06:54:21.034Z,5.86
2018-11-03T06:56:49.745Z,5.60
2018-11-03T06:59:18.947Z,5.67
2018-11-03T07:01:47.707Z,5.65
2018-11-03T07:04:16.418Z,5.68
2018-11-03T07:06:45.307Z,5.72
2018-11-03T07:09:17.661Z,5.81
2018-11-03T07:11:47.366Z,5.87
2018-11-03T07:14:16.004Z,5.84
2018-11-03T07:16:44.678Z,5.83
2018-11-03T07:19:13.425Z,5.82
2018-11-03T07:21:42.300Z,5.80
2018-11-03T07:24:10.915Z,5.82
2018-11-03T07:26:39.699Z,5.77
2018-11-03T07:29:08.642Z,5.79
2018-11-03T07:31:37.574Z,5.82
2018-11-03T07:34:06.731Z,5.89
2018-11-03T07:36:35.457Z,6.02
2018-11-03T07:39:05.606Z,5.98
2018-11-03T07:41:34.721Z,6.12
2018-11-03T07:44:03.506Z,6.24
2018-11-03T07:46:32.121Z,6.30
2018-11-03T07:49:01.388Z,6.39
2018-11-03T07:51:29.995Z,6.47
2018-11-03T07:53:58.732Z,6.46
2018-11-03T07:56:27.618Z,6.58
2018-11-03T07:58:56.327Z,6.64
2018-11-03T08:01:25.022Z,6.78
2018-11-03T08:03:53.858Z,6.90
2018-11-03T08:06:22.550Z,6.93
2018-11-03T08:08:51.257Z,7.03
2018-11-03T08:11:19.971Z,7.12
2018-11-03T08:13:48.654Z,7.19
2018-11-03T08:16:17.331Z,7.28
2018-11-03T08:18:46.055Z,7.41
2018-11-03T08:21:14.741Z,7.49
2018-11-03T08:23:43.463Z,7.54
2018-11-03T08:26:12.145Z,7.62
2018-11-03T08:28:42.610Z,7.67
2018-11-03T08:31:11.531Z,7.67
2018-11-03T08:33:40.285Z,7.71
2018-11-03T08:36:08.984Z,7.72
2018-11-03T08:38:37.700Z,7.80
2018-11-03T08:41:07.082Z,7.79
2018-11-03T08:43:35.813Z,7.85
2018-11-03T08:46:04.888Z,7.91
2018-11-03T08:48:33.748Z,7.95
2018-11-03T08:51:02.537Z,7.89
2018-11-03T08:53:31.298Z,7.91
2018-11-03T08:56:00.158Z,7.96
2018-11-03T08:58:28.868Z,7.98
2018-11-03T09:00:57.620Z,8.02
2018-11-03T09:03:26.463Z,8.05
2018-11-03T09:05:55.126Z,8.13
2018-11-03T09:08:23.835Z,8.22
2018-11-03T09:10:52.959Z,8.12
2018-11-03T09:13:21.944Z,8.20
2018-11-03T09:15:50.634Z,8.27
2018-11-03T09:18:19.357Z,8.34
2018-11-03T09:20:48.116Z,8.36
2018-11-03T09:23:16.862Z,8.47
2018-11-03T09:25:45.683Z,8.50
2018-11-03T09:28:14.377Z,8.61
2018-11-03T09:30:43.110Z,8.65
2018-11-03T09:33:12.019Z,8.71
2018-11-03T09:35:40.691Z,8.69
2018-11-03T09:38:09.437Z,8.77
2018-11-03T09:40:38.258Z,8.79
2018-11-03T09:43:07.909Z,8.80
2018-11-03T09:45:36.563Z,8.87
2018-11-03T09:48:05.406Z,8.92
2018-11-03T09:50:34.207Z,8.86
2018-11-03T09:53:02.943Z,9.00
2018-11-03T09:55:31.804Z,8.96
2018-11-03T09:58:00.580Z,8.98
2018-11-03T10:00:29.343Z,9.00
2018-11-03T10:02:58.442Z,8.98
2018-11-03T10:05:27.625Z,9.02
2018-11-03T10:07:56.446Z,9.11
2018-11-03T10:10:25.250Z,9.18
2018-11-03T10:12:54.162Z,9.24
2018-11-03T10:15:22.865Z,9.33
2018-11-03T10:17:51.661Z,9.36
2018-11-03T10:20:20.501Z,9.29
2018-11-03T10:22:49.205Z,9.40
2018-11-03T10:25:19.874Z,9.46
2018-11-03T10:27:49.141Z,9.50
2018-11-03T10:30:18.487Z,9.56
2018-11-03T10:32:47.772Z,9.70
2018-11-03T10:35:16.604Z,9.79
2018-11-03T10:37:45.575Z,9.89
2018-11-03T10:40:16.037Z,10.01
2018-11-03T10:42:44.842Z,10.03
2018-11-03T10:45:14.826Z,10.09
2018-11-03T10:47:43.847Z,10.15
2018-11-03T10:50:17.317Z,9.99
2018-11-03T10:52:46.574Z,10.11
2018-11-03T10:55:16.643Z,10.17
2018-11-03T10:57:45.493Z,10.18
2018-11-03T11:00:21.905Z,10.16
2018-11-03T11:02:55.700Z,10.18
2018-11-03T11:05:29.799Z,10.16
2018-11-03T11:08:03.721Z,10.24
2018-11-03T11:10:37.827Z,10.30
2018-11-03T11:13:10.908Z,10.34
2018-11-03T11:15:39.818Z,10.29
2018-11-03T11:18:08.514Z,10.27
2018-11-03T11:20:38.137Z,10.35
2018-11-03T11:23:07.219Z,10.37
2018-11-03T11:25:35.933Z,10.39
2018-11-03T11:28:04.860Z,10.51
2018-11-03T11:30:37.914Z,10.53
2018-11-03T11:33:09.514Z,10.62
2018-11-03T11:35:38.437Z,10.65
2018-11-03T11:38:08.839Z,10.71
2018-11-03T11:40:38.357Z,10.75
2018-11-03T11:43:09.216Z,10.72
2018-11-03T11:45:38.323Z,10.83
2018-11-03T11:48:08.151Z,10.79
2018-11-03T11:50:37.060Z,10.78
2018-11-03T11:53:06.117Z,10.77
2018-11-03T11:55:34.875Z,10.84
2018-11-03T11:58:03.864Z,10.84
2018-11-03T12:00:32.630Z,10.85
2018-11-03T12:03:01.521Z,10.92
2018-11-03T12:05:30.295Z,10.88
2018-11-03T12:07:59.062Z,10.80
2018-11-03T12:10:27.843Z,10.98
2018-11-03T12:12:56.624Z,11.04
2018-11-03T12:15:25.343Z,11.14
2018-11-03T12:17:54.097Z,11.21
2018-11-03T12:20:22.834Z,11.02
2018-11-03T12:22:51.551Z,11.13
2018-11-03T12:25:20.233Z,11.20
2018-11-03T12:27:49.222Z,11.31
2018-11-03T12:30:17.990Z,11.30
2018-11-03T12:32:46.738Z,11.22
2018-11-03T12:35:15.634Z,11.36
2018-11-03T12:37:44.673Z,11.46
2018-11-03T12:40:15.466Z,11.51
2018-11-03T12:42:44.407Z,11.53
2018-11-03T12:45:13.620Z,11.50
2018-11-03T12:47:42.726Z,11.55
2018-11-03T12:50:14.146Z,11.61
2018-11-03T12:52:42.920Z,11.57
2018-11-03T12:55:11.991Z,11.57
2018-11-03T12:57:41.699Z,11.51
2018-11-03T13:00:12.242Z,11.49
2018-11-03T13:02:41.636Z,11.49
2018-11-03T13:05:10.791Z,11.42
2018-11-03T13:07:40.543Z,11.42
2018-11-03T13:10:10.272Z,11.43
2018-11-03T13:12:39.693Z,11.41
2018-11-03T13:15:09.361Z,11.43
2018-11-03T13:17:38.639Z,11.45
2018-11-03T13:20:09.752Z,11.39
2018-11-03T13:22:38.478Z,11.45
2018-11-03T13:25:08.862Z,11.48
2018-11-03T13:27:38.795Z,11.52
2018-11-03T13:30:09.988Z,11.51
2018-11-03T13:32:39.483Z,11.56
2018-11-03T13:35:09.279Z,11.52
2018-11-03T13:37:38.221Z,11.54
2018-11-03T13:40:08.077Z,11.56
2018-11-03T13:42:36.779Z,11.53
2018-11-03T13:45:06.325Z,11.48
2018-11-03T13:47:35.325Z,11.54
2018-11-03T13:50:07.806Z,11.53
2018-11-03T13:52:37.097Z,11.57
2018-11-03T13:55:06.331Z,11.54
2018-11-03T13:57:35.059Z,11.61
2018-11-03T14:00:04.003Z,11.54
2018-11-03T14:02:32.818Z,11.54
2018-11-03T14:05:01.544Z,11.48
2018-11-03T14:07:30.391Z,11.51
2018-11-03T14:09:59.111Z,11.50
2018-11-03T14:12:27.865Z,11.44
2018-11-03T14:14:56.704Z,11.48
2018-11-03T14:17:25.468Z,11.45
2018-11-03T14:19:54.160Z,11.46
2018-11-03T14:22:23.011Z,11.39
2018-11-03T14:24:52.649Z,11.38
2018-11-03T14:27:21.351Z,11.34
2018-11-03T14:29:50.166Z,11.35
2018-11-03T14:32:18.870Z,11.38
2018-11-03T14:34:47.594Z,11.34
2018-11-03T14:37:16.474Z,11.35
2018-11-03T14:39:45.218Z,11.33
2018-11-03T14:42:14.154Z,11.33
2018-11-03T14:44:43.102Z,11.26
2018-11-03T14:47:11.784Z,11.21
2018-11-03T14:49:40.793Z,11.23
2018-11-03T14:52:09.883Z,11.21
2018-11-03T14:54:38.596Z,11.20
2018-11-03T14:57:08.522Z,11.18
2018-11-03T14:59:37.593Z,11.14
2018-11-03T15:02:06.351Z,11.13
2018-11-03T15:04:36.023Z,11.13
2018-11-03T15:07:05.098Z,11.09
2018-11-03T15:09:33.814Z,11.05
2018-11-03T15:12:02.524Z,11.01
2018-11-03T15:14:31.281Z,10.99
2018-11-03T15:17:00.072Z,10.98
2018-11-03T15:19:28.869Z,10.89
2018-11-03T15:21:57.746Z,10.85
2018-11-03T15:24:26.432Z,10.81
2018-11-03T15:26:55.123Z,10.78
2018-11-03T15:29:23.868Z,10.76
2018-11-03T15:31:52.626Z,10.68
2018-11-03T15:34:21.381Z,10.69
2018-11-03T15:36:50.348Z,10.63
2018-11-03T15:39:19.063Z,10.64
2018-11-03T15:41:47.852Z,10.59
2018-11-03T15:44:16.890Z,10.53
2018-11-03T15:46:45.771Z,10.51
2018-11-03T15:49:15.167Z,10.50
2018-11-03T15:51:44.054Z,10.46
2018-11-03T15:54:12.862Z,10.43
2018-11-03T15:56:41.607Z,10.38
2018-11-03T15:59:10.467Z,10.30
2018-11-03T16:01:39.178Z,10.21
2018-11-03T16:04:08.648Z,10.17
2018-11-03T16:06:37.476Z,10.12
2018-11-03T16:09:09.114Z,10.06
2018-11-03T16:11:38.647Z,10.03
2018-11-03T16:14:07.701Z,10.02
2018-11-03T16:16:36.514Z,9.95
2018-11-03T16:19:05.915Z,9.89
2018-11-03T16:21:34.615Z,9.87
2018-11-03T16:24:03.366Z,9.81
2018-11-03T16:26:32.384Z,9.78
2018-11-03T16:29:01.142Z,9.73
2018-11-03T16:31:36.554Z,9.71
2018-11-03T16:34:05.620Z,9.69
2018-11-03T16:36:34.286Z,9.70
2018-11-03T16:39:03.208Z,9.64
2018-11-03T16:41:32.108Z,9.59
2018-11-03T16:44:00.807Z,9.55
2018-11-03T16:46:29.665Z,9.50
2018-11-03T16:48:58.382Z,9.45
2018-11-03T16:51:27.054Z,9.40
2018-11-03T16:53:55.996Z,9.33
2018-11-03T16:56:24.738Z,9.29
2018-11-03T16:58:53.497Z,9.28
2018-11-03T17:01:22.376Z,9.27
2018-11-03T17:03:51.105Z,9.23
2018-11-03T17:06:20.028Z,9.23
2018-11-03T17:08:48.836Z,9.23
2018-11-03T17:11:17.615Z,9.24
2018-11-03T17:13:46.343Z,9.18
2018-11-03T17:16:15.421Z,9.13
2018-11-03T17:18:44.156Z,9.12
2018-11-03T17:21:12.976Z,9.11
2018-11-03T17:23:41.818Z,9.12
2018-11-03T17:26:10.549Z,9.07
2018-11-03T17:28:39.326Z,9.11
2018-11-03T17:31:08.927Z,9.06
2018-11-03T17:33:37.758Z,9.07
2018-11-03T17:36:06.613Z,9.04
2018-11-03T17:38:35.358Z,9.02
2018-11-03T17:41:04.170Z,8.95
2018-11-03T17:43:33.113Z,8.93
2018-11-03T17:46:02.290Z,8.99
2018-11-03T17:48:31.251Z,8.97
2018-11-03T17:51:00.015Z,8.90
2018-11-03T17:53:28.765Z,8.85
2018-11-03T17:55:57.578Z,8.84
2018-11-03T17:58:26.328Z,8.81
2018-11-03T18:00:55.464Z,8.84
2018-11-03T18:03:24.119Z,8.84
2018-11-03T18:05:52.863Z,8.76
2018-11-03T18:08:22.003Z,8.75
2018-11-03T18:10:50.686Z,8.77
2018-11-03T18:13:19.476Z,8.69
2018-11-03T18:15:48.263Z,8.67
2018-11-03T18:18:17.049Z,8.66
2018-11-03T18:20:45.976Z,8.65
2018-11-03T18:23:14.883Z,8.55
2018-11-03T18:25:43.578Z,8.60
2018-11-03T18:28:12.384Z,8.60
2018-11-03T18:30:41.340Z,8.59
2018-11-03T18:33:10.052Z,8.53
2018-11-03T18:35:38.930Z,8.51
2018-11-03T18:38:07.870Z,8.52
2018-11-03T18:40:36.989Z,8.46
2018-11-03T18:43:06.759Z,8.40
2018-11-03T18:45:35.691Z,8.35
2018-11-03T18:48:05.469Z,8.32
2018-11-03T18:50:34.426Z,8.28
2018-11-03T18:53:03.382Z,8.26
2018-11-03T18:55:32.209Z,8.29
2018-11-03T18:58:00.958Z,8.23
2018-11-03T19:00:29.828Z,8.22
2018-11-03T19:02:58.619Z,8.15
2018-11-03T19:05:27.494Z,8.13
2018-11-03T19:07:56.453Z,8.13
2018-11-03T19:10:25.708Z,8.11
2018-11-03T19:12:54.879Z,8.11
2018-11-03T19:15:23.925Z,8.15
2018-11-03T19:17:52.772Z,8.09
2018-11-03T19:20:21.559Z,8.06
2018-11-03T19:22:50.447Z,7.97
2018-11-03T19:25:19.271Z,7.94
2018-11-03T19:27:48.132Z,7.90
2018-11-03T19:30:17.219Z,7.98
2018-11-03T19:32:46.172Z,8.01
2018-11-03T19:35:15.060Z,7.91
2018-11-03T19:37:44.609Z,7.94
2018-11-03T19:40:14.189Z,7.91
2018-11-03T19:42:43.322Z,7.90
2018-11-03T19:45:13.009Z,7.82
2018-11-03T19:47:41.837Z,7.82
2018-11-03T19:50:11.208Z,7.84
2018-11-03T19:52:40.346Z,7.85
2018-11-03T19:55:09.284Z,7.85
2018-11-03T19:57:39.174Z,7.82
2018-11-03T20:00:10.869Z,7.79
2018-11-03T20:02:39.817Z,7.77
2018-11-03T20:05:10.043Z,7.74
2018-11-03T20:07:39.229Z,7.63
2018-11-03T20:10:09.281Z,7.60
2018-11-03T20:12:39.256Z,7.56
2018-11-03T20:15:09.744Z,7.56
2018-11-03T20:17:39.104Z,7.49
2018-11-03T20:20:09.676Z,7.42
2018-11-03T20:22:39.314Z,7.44
2018-11-03T20:25:10.633Z,7.45
2018-11-03T20:27:39.558Z,7.48
2018-11-03T20:30:12.329Z,7.47
2018-11-03T20:32:41.230Z,7.42
2018-11-03T20:35:11.481Z,7.36
2018-11-03T20:37:40.563Z,7.40
2018-11-03T20:40:11.090Z,7.39
2018-11-03T20:42:39.922Z,7.44
2018-11-03T20:45:09.522Z,7.42
2018-11-03T20:47:39.387Z,7.40
2018-11-03T20:50:11.159Z,7.36
2018-11-03T20:52:40.167Z,7.39
2018-11-03T20:55:09.566Z,7.36
2018-11-03T20:57:39.358Z,7.34
2018-11-03T21:00:10.475Z,7.28
2018-11-03T21:02:39.170Z,7.24
2018-11-03T21:05:09.270Z,7.24
2018-11-03T21:07:38.225Z,7.20
2018-11-03T21:10:07.210Z,7.16
2018-11-03T21:12:36.052Z,7.10
2018-11-03T21:15:04.840Z,7.07
2018-11-03T21:17:33.583Z,7.06
2018-11-03T21:20:02.702Z,6.98
2018-11-03T21:22:31.423Z,6.78
2018-11-03T21:25:00.205Z,6.72
2018-11-03T21:27:29.046Z,6.76
2018-11-03T21:29:57.838Z,6.76
2018-11-03T21:32:26.609Z,6.76
2018-11-03T21:34:55.401Z,6.76
2018-11-03T21:37:24.198Z,6.73
2018-11-03T21:39:53.087Z,6.62
2018-11-03T21:42:21.895Z,6.58
2018-11-03T21:44:50.643Z,6.60
2018-11-03T21:47:19.380Z,6.58
2018-11-03T21:49:48.336Z,6.60
2018-11-03T21:52:17.098Z,6.49
2018-11-03T21:54:45.989Z,6.50
2018-11-03T21:57:17.620Z,6.56
2018-11-03T21:59:46.345Z,6.58
2018-11-03T22:02:15.201Z,6.54
2018-11-03T22:04:43.886Z,6.51
2018-11-03T22:07:12.667Z,6.55
2018-11-03T22:09:41.645Z,6.53
2018-11-03T22:12:10.370Z,6.56
2018-11-03T22:14:39.322Z,6.48
2018-11-03T22:17:08.533Z,6.54
2018-11-03T22:19:37.250Z,6.43
2018-11-03T22:22:06.014Z,6.47
2018-11-03T22:24:34.827Z,6.47
2018-11-03T22:27:03.595Z,6.48
2018-11-03T22:29:38.983Z,6.42
2018-11-03T22:32:07.707Z,6.40
2018-11-03T22:34:36.465Z,6.38
2018-11-03T22:37:05.393Z,6.38
2018-11-03T22:39:34.091Z,6.35
2018-11-03T22:42:02.892Z,6.32
2018-11-03T22:44:31.717Z,6.31
2018-11-03T22:47:00.541Z,6.08
2018-11-03T22:49:29.223Z,6.07
2018-11-03T22:51:58.058Z,6.13
2018-11-03T22:54:26.762Z,5.93
2018-11-03T22:56:55.712Z,6.01
2018-11-03T22:59:24.486Z,6.01
2018-11-03T23:01:53.320Z,5.91
2018-11-03T23:04:22.062Z,6.00
2018-11-03T23:06:50.923Z,6.03
2018-11-03T23:09:19.650Z,6.12
2018-11-03T23:11:48.416Z,6.09
2018-11-03T23:14:17.560Z,6.07
2018-11-03T23:16:46.251Z,6.05
2018-11-03T23:19:15.010Z,5.98
2018-11-03T23:21:43.880Z,6.00
2018-11-03T23:24:12.595Z,5.90
2018-11-03T23:26:41.449Z,5.93
2018-11-03T23:29:10.354Z,6.02
2018-11-03T23:31:39.538Z,6.01
2018-11-03T23:34:08.252Z,6.06
2018-11-03T23:36:37.045Z,6.05
2018-11-03T23:39:08.464Z,6.02
2018-11-03T23:41:37.148Z,5.98
2018-11-03T23:44:06.091Z,6.10
2018-11-03T23:46:34.829Z,6.03
2018-11-03T23:49:03.637Z,5.89
2018-11-03T23:51:32.862Z,5.95
2018-11-03T23:54:08.215Z,5.97
2018-11-03T23:56:36.941Z,5.95
2018-11-03T23:59:06.114Z,5.91
